Winchester, ID

7:38 AM PDT on August 20, 2014 (GMT -0700)
Pullman-Moscow Regional | Change Station
CLOSE
Current Station
Airport
Location: Pullman,
Elevation: 2552 ft
Nearby Weather Stations

Elev 2552 ft 46.74 °N, 117.12 °W | Updated 45 minutes ago

Clear
Clear
64 °F
Feels Like 64 °F
N
8
Wind Variable Wind from WSW

Today
High -- | Low -- °F
--% Chance of Precip.
Yesterday
High -- | Low -- °F
Precip. -- in
5:51 AM 7:46 PM
Waning Crescent, 21% visible
Pressure 29.79 in
Visibility 10.0 miles
Clouds Clear
Dew Point 53 °F
Humidity 67%
Rainfall 0.00 in
Snow Depth Not available.
UV 0 out of 12
Pollen 7.40 out of 12
PM2.5 Moderate
Flu Activity Not available.
METAR KPUW 201353Z AUTO 25007KT 10SM CLR 18/12 A2984 RMK AO2 SLP086 T01780117

More Conditions Fewer Conditions

Pressure 29.79 in
Visibility 10.0 miles
Clouds Clear
Dew Point 53 °F
Humidity 67%
Rainfall 0.00 in
Snow Depth Not available.
UV 0 out of 12
Pollen 7.40 out of 12
PM2.5 Moderate
Flu Activity Not available.
METAR KPUW 201353Z AUTO 25007KT 10SM CLR 18/12 A2984 RMK AO2 SLP086 T01780117

More Conditions Fewer Conditions

10-Day Weather Forecast

Almanac

Astronomy

Aug. 20, 2014 Rise Set
Actual Time 5:51 AM PDT 7:46 PM PDT
Civil Twilight 5:19 AM PDT 8:18 PM PDT
Nautical Twilight 4:39 AM PDT 8:58 PM PDT
Astronomical Twilight 3:56 AM PDT 9:41 PM PDT
Moon 1:29 AM PDT 4:41 PM PDT
Length of Visible Light 14h 59m
Length of Day
13h 54m
Tomorrow will be 3m 1s shorter.
Waning Crescent, 21% of the Moon is Illuminated
Today
Waning Crescent
Aug 25
New
Sep 2
First Quarter
Sep 8
Full
Sep 15
Last Quarter

Today's Extremes

State Highs State Lows

Community

WunderPhotos

Upload Photos

1,745,654 photos uploaded!

Nearby

Air Quality

  Air Quality AQ Index Pollutant
Yesterday Good
PM2.5
Current Moderate
PM2.5
Wednesday Good
PM2.5
Thursday Good
PM2.5

Snow Depth

Station Depth Elevation
Moscow Mountain 0 in 4700 ft
Sherwin 0 in 3200 ft
Mica Creek 0 in 4750 ft
Lost Lake 0 in 6110 ft
Crater Meadows 0 in 5960 ft

Earthquake Activity

City Distance Mag. Time & Date
No recent earthquake activity has been reported nearby.
Minimum magnitude displayed is 2.5.

Coastal Water Temperatures

Place Temperature
No Stations Reporting

Nearby Weather Stations